sensor_id;sensor_type;location;lat;lon;timestamp;pressure;altitude;pressure_sealevel;temperature;humidity
13124;BME280;6627;50.920;12.050;2023-02-16T00:00:44;99177.69;;;9.52;51.98
13124;BME280;6627;50.920;12.050;2023-02-16T00:03:15;99168.47;;;9.53;51.90
13124;BME280;6627;50.920;12.050;2023-02-16T00:05:44;99199.53;;;9.90;51.17
13124;BME280;6627;50.920;12.050;2023-02-16T00:08:13;99088.19;;;9.19;51.38
13124;BME280;6627;50.920;12.050;2023-02-16T00:10:40;99176.28;;;9.89;50.37
13124;BME280;6627;50.920;12.050;2023-02-16T00:13:29;99203.56;;;9.92;50.94
13124;BME280;6627;50.920;12.050;2023-02-16T00:16:14;99143.72;;;9.41;51.80
13124;BME280;6627;50.920;12.050;2023-02-16T00:18:42;99153.50;;;9.66;50.72
13124;BME280;6627;50.920;12.050;2023-02-16T00:21:11;99040.91;;;8.88;51.47
13124;BME280;6627;50.920;12.050;2023-02-16T00:23:38;99017.03;;;8.66;52.01
13124;BME280;6627;50.920;12.050;2023-02-16T00:26:13;99153.38;;;9.47;51.28
13124;BME280;6627;50.920;12.050;2023-02-16T00:28:42;99199.28;;;9.86;51.05
13124;BME280;6627;50.920;12.050;2023-02-16T00:31:22;99119.16;;;9.66;50.35
13124;BME280;6627;50.920;12.050;2023-02-16T00:33:52;99174.66;;;9.88;50.35
13124;BME280;6627;50.920;12.050;2023-02-16T00:36:21;99024.41;;;8.89;51.26
13124;BME280;6627;50.920;12.050;2023-02-16T00:38:48;99113.75;;;9.66;50.33
13124;BME280;6627;50.920;12.050;2023-02-16T00:41:19;99164.22;;;10.05;49.55
13124;BME280;6627;50.920;12.050;2023-02-16T00:44:11;99065.16;;;9.56;49.43
13124;BME280;6627;50.920;12.050;2023-02-16T00:46:41;99144.09;;;9.87;49.70
13124;BME280;6627;50.920;12.050;2023-02-16T00:49:13;99137.31;;;9.60;50.55
13124;BME280;6627;50.920;12.050;2023-02-16T00:51:42;99185.88;;;10.05;50.07
13124;BME280;6627;50.920;12.050;2023-02-16T00:54:11;99177.91;;;10.14;49.66
13124;BME280;6627;50.920;12.050;2023-02-16T00:56:41;98980.78;;;8.77;50.99
13124;BME280;6627;50.920;12.050;2023-02-16T00:59:15;99009.47;;;8.68;51.88
13124;BME280;6627;50.920;12.050;2023-02-16T01:01:45;99063.50;;;9.31;50.94
13124;BME280;6627;50.920;12.050;2023-02-16T01:04:20;99115.91;;;9.64;50.51
13124;BME280;6627;50.920;12.050;2023-02-16T01:06:57;99048.19;;;9.21;50.60
13124;BME280;6627;50.920;12.050;2023-02-16T01:09:45;98998.53;;;8.49;52.30
13124;BME280;6627;50.920;12.050;2023-02-16T01:12:30;99020.69;;;8.80;51.54
13124;BME280;6627;50.920;12.050;2023-02-16T01:15:00;99129.03;;;9.52;51.10
13124;BME280;6627;50.920;12.050;2023-02-16T01:17:28;99090.28;;;9.27;51.38
13124;BME280;6627;50.920;12.050;2023-02-16T01:19:57;99037.59;;;8.96;51.69
13124;BME280;6627;50.920;12.050;2023-02-16T01:22:37;99068.19;;;9.20;51.19
13124;BME280;6627;50.920;12.050;2023-02-16T01:25:06;99066.75;;;8.99;51.85
13124;BME280;6627;50.920;12.050;2023-02-16T01:27:36;99058.13;;;8.97;52.04
13124;BME280;6627;50.920;12.050;2023-02-16T01:30:12;99046.81;;;8.90;52.22
13124;BME280;6627;50.920;12.050;2023-02-16T01:32:51;99103.31;;;9.25;52.08
13124;BME280;6627;50.920;12.050;2023-02-16T01:35:20;99167.69;;;9.81;50.49
13124;BME280;6627;50.920;12.050;2023-02-16T01:37:51;98990.78;;;8.71;51.68
13124;BME280;6627;50.920;12.050;2023-02-16T01:40:27;99136.69;;;9.40;51.45
13124;BME280;6627;50.920;12.050;2023-02-16T01:43:06;99161.94;;;9.59;51.09
13124;BME280;6627;50.920;12.050;2023-02-16T01:45:40;99074.63;;;9.24;50.67
13124;BME280;6627;50.920;12.050;2023-02-16T01:48:21;98987.03;;;8.72;50.92
13124;BME280;6627;50.920;12.050;2023-02-16T01:50:58;99107.00;;;9.34;50.77
13124;BME280;6627;50.920;12.050;2023-02-16T01:53:39;99086.50;;;9.28;50.91
13124;BME280;6627;50.920;12.050;2023-02-16T01:56:18;98914.72;;;8.30;51.30
13124;BME280;6627;50.920;12.050;2023-02-16T01:59:00;99039.09;;;8.78;51.88
13124;BME280;6627;50.920;12.050;2023-02-16T02:01:46;98928.94;;;8.01;52.97
13124;BME280;6627;50.920;12.050;2023-02-16T02:04:36;99088.81;;;8.72;53.22
13124;BME280;6627;50.920;12.050;2023-02-16T02:07:31;99076.69;;;8.69;53.28
13124;BME280;6627;50.920;12.050;2023-02-16T02:10:12;99094.81;;;9.03;52.58
13124;BME280;6627;50.920;12.050;2023-02-16T02:12:54;99112.72;;;9.28;52.03
13124;BME280;6627;50.920;12.050;2023-02-16T02:15:30;98980.53;;;8.34;52.91
13124;BME280;6627;50.920;12.050;2023-02-16T02:17:59;98870.16;;;7.54;53.67
13124;BME280;6627;50.920;12.050;2023-02-16T02:20:48;99087.94;;;8.81;52.98
13124;BME280;6627;50.920;12.050;2023-02-16T02:24:48;99008.78;;;8.52;52.63
13124;BME280;6627;50.920;12.050;2023-02-16T02:27:50;99030.94;;;8.44;53.44
13124;BME280;6627;50.920;12.050;2023-02-16T02:30:46;99004.66;;;8.15;54.31
13124;BME280;6627;50.920;12.050;2023-02-16T02:33:45;99081.66;;;8.52;53.98
13124;BME280;6627;50.920;12.050;2023-02-16T02:36:31;99103.09;;;8.77;53.17
13124;BME280;6627;50.920;12.050;2023-02-16T02:39:18;99081.16;;;8.40;54.49
13124;BME280;6627;50.920;12.050;2023-02-16T02:42:04;99068.22;;;8.37;54.54
13124;BME280;6627;50.920;12.050;2023-02-16T02:44:58;99119.75;;;8.95;52.83
13124;BME280;6627;50.920;12.050;2023-02-16T02:47:48;99037.59;;;8.07;54.07
13124;BME280;6627;50.920;12.050;2023-02-16T02:50:48;99097.69;;;8.77;52.74
13124;BME280;6627;50.920;12.050;2023-02-16T02:53:40;98997.59;;;8.24;52.44
13124;BME280;6627;50.920;12.050;2023-02-16T02:56:12;98888.72;;;6.91;56.03
13124;BME280;6627;50.920;12.050;2023-02-16T02:59:07;98974.75;;;7.42;55.14
13124;BME280;6627;50.920;12.050;2023-02-16T03:01:59;99056.25;;;7.93;55.24
13124;BME280;6627;50.920;12.050;2023-02-16T03:04:32;98967.78;;;7.30;55.98
13124;BME280;6627;50.920;12.050;2023-02-16T03:07:02;98937.69;;;6.98;57.08
13124;BME280;6627;50.920;12.050;2023-02-16T03:09:30;98933.69;;;6.75;57.54
13124;BME280;6627;50.920;12.050;2023-02-16T03:11:59;99147.63;;;8.05;56.09
13124;BME280;6627;50.920;12.050;2023-02-16T03:14:50;99150.25;;;8.35;55.24
13124;BME280;6627;50.920;12.050;2023-02-16T03:20:13;98979.91;;;7.28;55.47
13124;BME280;6627;50.920;12.050;2023-02-16T03:23:02;99102.91;;;7.99;55.31
13124;BME280;6627;50.920;12.050;2023-02-16T03:25:51;99140.59;;;8.19;55.64
13124;BME280;6627;50.920;12.050;2023-02-16T03:28:40;99174.50;;;8.51;55.34
13124;BME280;6627;50.920;12.050;2023-02-16T03:31:31;99146.47;;;8.37;55.33
13124;BME280;6627;50.920;12.050;2023-02-16T03:34:02;99075.13;;;7.98;55.48
13124;BME280;6627;50.920;12.050;2023-02-16T03:36:34;99092.66;;;7.96;55.71
13124;BME280;6627;50.920;12.050;2023-02-16T03:39:03;99095.88;;;7.98;56.09
13124;BME280;6627;50.920;12.050;2023-02-16T03:41:37;99063.78;;;8.01;55.05
13124;BME280;6627;50.920;12.050;2023-02-16T03:44:06;99060.84;;;7.93;55.12
13124;BME280;6627;50.920;12.050;2023-02-16T03:46:34;99165.28;;;8.62;54.78
13124;BME280;6627;50.920;12.050;2023-02-16T03:49:04;99012.44;;;7.57;55.39
13124;BME280;6627;50.920;12.050;2023-02-16T03:51:33;99138.38;;;8.31;55.29
13124;BME280;6627;50.920;12.050;2023-02-16T03:54:00;99165.47;;;8.76;54.20
13124;BME280;6627;50.920;12.050;2023-02-16T03:56:27;99036.09;;;7.80;54.76
13124;BME280;6627;50.920;12.050;2023-02-16T03:58:54;99116.56;;;8.18;55.21
13124;BME280;6627;50.920;12.050;2023-02-16T04:01:22;99037.22;;;7.64;55.20
13124;BME280;6627;50.920;12.050;2023-02-16T04:03:49;99009.31;;;7.09;57.17
13124;BME280;6627;50.920;12.050;2023-02-16T04:06:17;99083.53;;;7.76;56.45
13124;BME280;6627;50.920;12.050;2023-02-16T04:08:44;99134.13;;;8.15;55.85
13124;BME280;6627;50.920;12.050;2023-02-16T04:11:11;99081.09;;;7.85;55.85
13124;BME280;6627;50.920;12.050;2023-02-16T04:13:56;99125.50;;;8.13;55.92
13124;BME280;6627;50.920;12.050;2023-02-16T04:16:23;99242.28;;;9.09;54.31
13124;BME280;6627;50.920;12.050;2023-02-16T04:18:51;99074.81;;;8.05;54.59
13124;BME280;6627;50.920;12.050;2023-02-16T04:21:19;99131.44;;;8.15;55.11
13124;BME280;6627;50.920;12.050;2023-02-16T04:23:46;99148.63;;;8.40;54.91
13124;BME280;6627;50.920;12.050;2023-02-16T04:26:14;99166.47;;;8.25;55.64
13124;BME280;6627;50.920;12.050;2023-02-16T04:28:41;99242.25;;;9.14;53.90
13124;BME280;6627;50.920;12.050;2023-02-16T04:31:08;99046.31;;;7.89;54.51
13124;BME280;6627;50.920;12.050;2023-02-16T04:33:35;99046.97;;;7.40;56.18
13124;BME280;6627;50.920;12.050;2023-02-16T04:36:03;99103.50;;;7.65;56.58
13124;BME280;6627;50.920;12.050;2023-02-16T04:38:32;99060.41;;;7.50;56.31
13124;BME280;6627;50.920;12.050;2023-02-16T04:40:59;99190.13;;;8.54;54.99
13124;BME280;6627;50.920;12.050;2023-02-16T04:43:26;99160.22;;;8.45;54.70
13124;BME280;6627;50.920;12.050;2023-02-16T04:45:54;99057.56;;;8.06;54.30
13124;BME280;6627;50.920;12.050;2023-02-16T04:48:23;99074.91;;;7.84;55.50
13124;BME280;6627;50.920;12.050;2023-02-16T04:50:50;99123.00;;;8.32;54.48
13124;BME280;6627;50.920;12.050;2023-02-16T04:53:17;99032.84;;;7.78;54.83
13124;BME280;6627;50.920;12.050;2023-02-16T04:55:48;99125.16;;;8.40;54.39
13124;BME280;6627;50.920;12.050;2023-02-16T04:58:16;99171.66;;;8.87;53.59
13124;BME280;6627;50.920;12.050;2023-02-16T05:00:52;99122.19;;;8.37;54.23
13124;BME280;6627;50.920;12.050;2023-02-16T05:03:19;98991.97;;;7.46;55.18
13124;BME280;6627;50.920;12.050;2023-02-16T05:05:47;99154.00;;;8.45;54.90
13124;BME280;6627;50.920;12.050;2023-02-16T05:08:15;99066.81;;;7.79;55.53
13124;BME280;6627;50.920;12.050;2023-02-16T05:10:42;99174.44;;;8.66;54.47
13124;BME280;6627;50.920;12.050;2023-02-16T05:13:12;99162.06;;;8.60;54.42
13124;BME280;6627;50.920;12.050;2023-02-16T05:15:56;99144.84;;;8.46;54.51
13124;BME280;6627;50.920;12.050;2023-02-16T05:18:24;99077.03;;;7.93;55.11
13124;BME280;6627;50.920;12.050;2023-02-16T05:20:52;99111.97;;;8.28;54.30
13124;BME280;6627;50.920;12.050;2023-02-16T05:23:37;99185.75;;;8.73;54.42
13124;BME280;6627;50.920;12.050;2023-02-16T05:26:04;99191.06;;;8.89;53.82
13124;BME280;6627;50.920;12.050;2023-02-16T05:28:33;99122.19;;;8.31;54.98
13124;BME280;6627;50.920;12.050;2023-02-16T05:31:00;99160.19;;;8.55;54.56
13124;BME280;6627;50.920;12.050;2023-02-16T05:33:27;99186.25;;;8.86;53.94
13124;BME280;6627;50.920;12.050;2023-02-16T05:35:54;99016.94;;;7.77;54.93
13124;BME280;6627;50.920;12.050;2023-02-16T05:38:22;99041.38;;;8.01;54.12
13124;BME280;6627;50.920;12.050;2023-02-16T05:40:49;99035.91;;;7.46;56.23
13124;BME280;6627;50.920;12.050;2023-02-16T05:43:17;99061.97;;;7.76;55.52
13124;BME280;6627;50.920;12.050;2023-02-16T05:45:46;99154.31;;;8.38;54.82
13124;BME280;6627;50.920;12.050;2023-02-16T05:48:13;99088.38;;;7.90;55.74
13124;BME280;6627;50.920;12.050;2023-02-16T05:50:40;99097.75;;;8.02;55.36
13124;BME280;6627;50.920;12.050;2023-02-16T05:53:09;99186.97;;;8.42;55.70
13124;BME280;6627;50.920;12.050;2023-02-16T05:55:37;99057.59;;;7.91;54.68
13124;BME280;6627;50.920;12.050;2023-02-16T05:58:04;99139.53;;;8.15;55.84
13124;BME280;6627;50.920;12.050;2023-02-16T06:00:33;99129.56;;;8.16;55.43
13124;BME280;6627;50.920;12.050;2023-02-16T06:03:03;99069.16;;;8.06;54.65
13124;BME280;6627;50.920;12.050;2023-02-16T06:05:33;99168.53;;;8.64;54.48
13124;BME280;6627;50.920;12.050;2023-02-16T06:08:01;99089.09;;;8.11;54.96
13124;BME280;6627;50.920;12.050;2023-02-16T06:10:28;99100.13;;;8.14;55.26
13124;BME280;6627;50.920;12.050;2023-02-16T06:12:56;99208.38;;;8.82;54.75
13124;BME280;6627;50.920;12.050;2023-02-16T06:15:23;99151.13;;;8.80;53.59
13124;BME280;6627;50.920;12.050;2023-02-16T06:17:52;99119.16;;;8.53;53.57
13124;BME280;6627;50.920;12.050;2023-02-16T06:20:20;99059.47;;;7.95;54.62
13124;BME280;6627;50.920;12.050;2023-02-16T06:22:47;98997.97;;;7.22;56.03
13124;BME280;6627;50.920;12.050;2023-02-16T06:25:15;99067.91;;;7.73;55.71
13124;BME280;6627;50.920;12.050;2023-02-16T06:27:45;99176.59;;;8.69;54.48
13124;BME280;6627;50.920;12.050;2023-02-16T06:30:12;99100.13;;;8.19;54.73
13124;BME280;6627;50.920;12.050;2023-02-16T06:32:39;99152.34;;;8.54;54.43
13124;BME280;6627;50.920;12.050;2023-02-16T06:35:08;99062.97;;;8.01;54.89
13124;BME280;6627;50.920;12.050;2023-02-16T06:37:38;99046.91;;;7.70;55.60
13124;BME280;6627;50.920;12.050;2023-02-16T06:40:08;99073.28;;;7.83;55.63
13124;BME280;6627;50.920;12.050;2023-02-16T06:42:36;99116.81;;;8.26;54.74
13124;BME280;6627;50.920;12.050;2023-02-16T06:45:03;99049.00;;;7.78;55.39
13124;BME280;6627;50.920;12.050;2023-02-16T06:47:31;99168.00;;;8.57;54.77
13124;BME280;6627;50.920;12.050;2023-02-16T06:50:00;99130.28;;;8.37;54.87
13124;BME280;6627;50.920;12.050;2023-02-16T06:52:29;99200.50;;;8.91;54.42
13124;BME280;6627;50.920;12.050;2023-02-16T06:54:58;99079.59;;;8.28;54.02
13124;BME280;6627;50.920;12.050;2023-02-16T06:57:25;99068.94;;;7.88;55.41
13124;BME280;6627;50.920;12.050;2023-02-16T06:59:54;99204.34;;;9.24;53.04
13124;BME280;6627;50.920;12.050;2023-02-16T07:02:23;99214.53;;;9.38;52.78
13124;BME280;6627;50.920;12.050;2023-02-16T07:04:50;99180.00;;;9.29;52.40
13124;BME280;6627;50.920;12.050;2023-02-16T07:07:18;99160.78;;;8.97;52.89
13124;BME280;6627;50.920;12.050;2023-02-16T07:09:45;99145.50;;;8.72;53.32
13124;BME280;6627;50.920;12.050;2023-02-16T07:12:14;99141.38;;;8.84;52.81
13124;BME280;6627;50.920;12.050;2023-02-16T07:14:42;99174.75;;;9.09;52.08
13124;BME280;6627;50.920;12.050;2023-02-16T07:17:09;99133.91;;;8.71;53.21
13124;BME280;6627;50.920;12.050;2023-02-16T07:19:37;99106.81;;;8.42;53.51
13124;BME280;6627;50.920;12.050;2023-02-16T07:22:04;99119.59;;;8.71;53.06
13124;BME280;6627;50.920;12.050;2023-02-16T07:24:32;99200.47;;;9.41;52.15
13124;BME280;6627;50.920;12.050;2023-02-16T07:27:00;99151.66;;;8.88;52.94
13124;BME280;6627;50.920;12.050;2023-02-16T07:29:32;99239.78;;;9.62;51.98
13124;BME280;6627;50.920;12.050;2023-02-16T07:32:01;99222.97;;;9.70;51.22
13124;BME280;6627;50.920;12.050;2023-02-16T07:34:28;99274.13;;;9.96;51.02
13124;BME280;6627;50.920;12.050;2023-02-16T07:36:57;99126.03;;;9.19;50.96
13124;BME280;6627;50.920;12.050;2023-02-16T07:39:25;99172.50;;;9.21;52.21
13124;BME280;6627;50.920;12.050;2023-02-16T07:41:53;99174.59;;;9.29;52.19
13124;BME280;6627;50.920;12.050;2023-02-16T07:44:21;99217.16;;;9.53;52.04
13124;BME280;6627;50.920;12.050;2023-02-16T07:46:49;99170.13;;;9.49;51.47
13124;BME280;6627;50.920;12.050;2023-02-16T07:49:17;99194.56;;;9.68;51.31
13124;BME280;6627;50.920;12.050;2023-02-16T07:51:44;99111.84;;;8.98;51.69
13124;BME280;6627;50.920;12.050;2023-02-16T07:54:11;99146.53;;;9.25;52.01
13124;BME280;6627;50.920;12.050;2023-02-16T07:56:38;99258.09;;;9.75;52.14
13124;BME280;6627;50.920;12.050;2023-02-16T07:59:07;99255.34;;;9.80;51.79
13124;BME280;6627;50.920;12.050;2023-02-16T08:01:36;99188.00;;;9.45;51.87
13124;BME280;6627;50.920;12.050;2023-02-16T08:04:07;99202.53;;;9.54;51.74
13124;BME280;6627;50.920;12.050;2023-02-16T08:06:34;99216.47;;;9.71;51.34
13124;BME280;6627;50.920;12.050;2023-02-16T08:09:01;99313.72;;;10.55;50.50
13124;BME280;6627;50.920;12.050;2023-02-16T08:11:30;99291.78;;;10.27;50.61
13124;BME280;6627;50.920;12.050;2023-02-16T08:13:58;99234.09;;;9.98;50.44
13124;BME280;6627;50.920;12.050;2023-02-16T08:16:28;99245.41;;;10.05;51.02
13124;BME280;6627;50.920;12.050;2023-02-16T08:18:58;99359.97;;;10.88;50.10
13124;BME280;6627;50.920;12.050;2023-02-16T08:21:30;99293.16;;;10.49;50.40
13124;BME280;6627;50.920;12.050;2023-02-16T08:24:01;99211.03;;;10.00;51.10
13124;BME280;6627;50.920;12.050;2023-02-16T08:26:34;99242.47;;;10.30;50.52
13124;BME280;6627;50.920;12.050;2023-02-16T08:29:03;99327.91;;;10.95;49.91
13124;BME280;6627;50.920;12.050;2023-02-16T08:31:33;99221.00;;;10.10;50.89
13124;BME280;6627;50.920;12.050;2023-02-16T08:34:03;99153.09;;;9.77;51.05
13124;BME280;6627;50.920;12.050;2023-02-16T08:36:36;99241.78;;;10.44;50.18
13124;BME280;6627;50.920;12.050;2023-02-16T08:39:06;99335.91;;;11.05;49.73
13124;BME280;6627;50.920;12.050;2023-02-16T08:41:36;99361.31;;;11.33;49.07
13124;BME280;6627;50.920;12.050;2023-02-16T08:44:07;99256.78;;;10.60;49.44
13124;BME280;6627;50.920;12.050;2023-02-16T08:46:38;99326.75;;;11.01;49.25
13124;BME280;6627;50.920;12.050;2023-02-16T08:49:06;99390.88;;;11.34;49.47
13124;BME280;6627;50.920;12.050;2023-02-16T08:51:40;99410.13;;;11.57;48.76
13124;BME280;6627;50.920;12.050;2023-02-16T08:54:14;99385.06;;;11.65;48.22
13124;BME280;6627;50.920;12.050;2023-02-16T08:56:43;99322.56;;;11.32;48.52
13124;BME280;6627;50.920;12.050;2023-02-16T08:59:18;99417.75;;;11.98;48.25
13124;BME280;6627;50.920;12.050;2023-02-16T09:01:48;99438.09;;;12.19;47.93
13124;BME280;6627;50.920;12.050;2023-02-16T09:04:17;99423.50;;;12.15;47.60
13124;BME280;6627;50.920;12.050;2023-02-16T09:06:47;99385.56;;;12.10;47.37
13124;BME280;6627;50.920;12.050;2023-02-16T09:09:15;99502.88;;;13.15;46.11
13124;BME280;6627;50.920;12.050;2023-02-16T09:11:44;99503.88;;;13.19;45.99
13124;BME280;6627;50.920;12.050;2023-02-16T09:14:12;99472.84;;;13.20;45.83
13124;BME280;6627;50.920;12.050;2023-02-16T09:16:40;99462.22;;;13.24;45.79
13124;BME280;6627;50.920;12.050;2023-02-16T09:19:12;99531.19;;;13.74;45.56
13124;BME280;6627;50.920;12.050;2023-02-16T09:21:41;99468.16;;;13.67;44.93
13124;BME280;6627;50.920;12.050;2023-02-16T09:24:11;99262.94;;;12.63;45.88
13124;BME280;6627;50.920;12.050;2023-02-16T09:26:40;99506.97;;;14.14;44.51
13124;BME280;6627;50.920;12.050;2023-02-16T09:29:09;99437.81;;;13.87;44.24
13124;BME280;6627;50.920;12.050;2023-02-16T09:31:38;99405.97;;;13.60;44.92
13124;BME280;6627;50.920;12.050;2023-02-16T09:34:14;99432.84;;;13.89;44.60
13124;BME280;6627;50.920;12.050;2023-02-16T09:36:43;99553.19;;;14.69;43.91
13124;BME280;6627;50.920;12.050;2023-02-16T09:39:12;99476.22;;;14.50;43.34
13124;BME280;6627;50.920;12.050;2023-02-16T09:42:03;99389.22;;;14.17;43.49
13124;BME280;6627;50.920;12.050;2023-02-16T09:44:47;99563.25;;;15.27;42.65
13124;BME280;6627;50.920;12.050;2023-02-16T09:47:23;99510.72;;;15.22;42.34
13124;BME280;6627;50.920;12.050;2023-02-16T09:49:52;99573.63;;;15.70;42.36
13124;BME280;6627;50.920;12.050;2023-02-16T09:52:30;99619.91;;;16.06;41.58
13124;BME280;6627;50.920;12.050;2023-02-16T09:55:07;99448.56;;;15.50;41.43
13124;BME280;6627;50.920;12.050;2023-02-16T09:57:48;99535.34;;;16.01;41.33
13124;BME280;6627;50.920;12.050;2023-02-16T10:00:38;99537.47;;;16.13;40.62
13124;BME280;6627;50.920;12.050;2023-02-16T10:03:27;99525.25;;;16.19;40.91
13124;BME280;6627;50.920;12.050;2023-02-16T10:06:13;99443.59;;;16.18;39.64
13124;BME280;6627;50.920;12.050;2023-02-16T10:08:49;99549.16;;;16.79;39.42
13124;BME280;6627;50.920;12.050;2023-02-16T10:11:24;99470.28;;;16.64;39.13
13124;BME280;6627;50.920;12.050;2023-02-16T10:14:17;99488.00;;;16.84;39.34
13124;BME280;6627;50.920;12.050;2023-02-16T10:16:53;99378.78;;;16.27;39.93
13124;BME280;6627;50.920;12.050;2023-02-16T10:19:28;99291.88;;;15.85;39.88
13124;BME280;6627;50.920;12.050;2023-02-16T10:22:05;99359.66;;;16.18;39.79
13124;BME280;6627;50.920;12.050;2023-02-16T10:24:45;99303.41;;;16.00;39.77
13124;BME280;6627;50.920;12.050;2023-02-16T10:27:20;99493.72;;;17.17;39.11
13124;BME280;6627;50.920;12.050;2023-02-16T10:29:48;99268.69;;;16.09;38.95
13124;BME280;6627;50.920;12.050;2023-02-16T10:32:24;99416.53;;;16.85;38.93
13124;BME280;6627;50.920;12.050;2023-02-16T10:35:08;99490.63;;;17.36;38.30
13124;BME280;6627;50.920;12.050;2023-02-16T10:37:50;99439.75;;;17.18;38.56
13124;BME280;6627;50.920;12.050;2023-02-16T10:40:44;99343.13;;;16.96;38.23
13124;BME280;6627;50.920;12.050;2023-02-16T10:43:23;99370.91;;;17.07;38.35
13124;BME280;6627;50.920;12.050;2023-02-16T10:45:57;99315.47;;;16.80;38.17
13124;BME280;6627;50.920;12.050;2023-02-16T10:48:27;99437.88;;;17.48;37.85
13124;BME280;6627;50.920;12.050;2023-02-16T10:51:00;99504.16;;;18.09;37.17
13124;BME280;6627;50.920;12.050;2023-02-16T10:53:38;99472.69;;;18.15;36.76
13124;BME280;6627;50.920;12.050;2023-02-16T10:56:42;99372.25;;;17.89;36.73
13124;BME280;6627;50.920;12.050;2023-02-16T10:59:17;99323.44;;;17.62;36.99
13124;BME280;6627;50.920;12.050;2023-02-16T11:01:49;99196.06;;;16.84;37.46
13124;BME280;6627;50.920;12.050;2023-02-16T11:04:37;99344.09;;;17.80;36.69
13124;BME280;6627;50.920;12.050;2023-02-16T11:07:08;99312.47;;;17.62;36.71
13124;BME280;6627;50.920;12.050;2023-02-16T11:09:37;99311.97;;;17.60;37.08
13124;BME280;6627;50.920;12.050;2023-02-16T11:12:23;99304.97;;;17.71;36.62
13124;BME280;6627;50.920;12.050;2023-02-16T11:14:59;99258.59;;;17.66;36.27
13124;BME280;6627;50.920;12.050;2023-02-16T11:17:30;99280.41;;;17.62;36.75
13124;BME280;6627;50.920;12.050;2023-02-16T11:20:02;99325.44;;;18.15;35.98
13124;BME280;6627;50.920;12.050;2023-02-16T11:22:34;99181.53;;;17.34;36.52
13124;BME280;6627;50.920;12.050;2023-02-16T11:25:20;99150.63;;;17.13;36.72
13124;BME280;6627;50.920;12.050;2023-02-16T11:27:54;99212.66;;;17.51;36.81
13124;BME280;6627;50.920;12.050;2023-02-16T11:30:32;99359.22;;;18.40;36.15
13124;BME280;6627;50.920;12.050;2023-02-16T11:33:21;99176.69;;;17.52;36.25
13124;BME280;6627;50.920;12.050;2023-02-16T11:35:51;99307.25;;;18.11;36.32
13124;BME280;6627;50.920;12.050;2023-02-16T11:38:26;99219.88;;;17.76;36.07
13124;BME280;6627;50.920;12.050;2023-02-16T11:40:58;99173.50;;;17.50;36.53
13124;BME280;6627;50.920;12.050;2023-02-16T11:43:35;99305.06;;;18.37;35.96
13124;BME280;6627;50.920;12.050;2023-02-16T11:46:13;99154.75;;;17.73;35.79
13124;BME280;6627;50.920;12.050;2023-02-16T11:48:44;99289.31;;;18.47;35.56
13124;BME280;6627;50.920;12.050;2023-02-16T11:51:33;99271.94;;;18.43;35.42
13124;BME280;6627;50.920;12.050;2023-02-16T11:54:05;99341.31;;;18.88;34.94
13124;BME280;6627;50.920;12.050;2023-02-16T11:56:33;99233.97;;;18.45;35.26
13124;BME280;6627;50.920;12.050;2023-02-16T11:59:13;99296.34;;;18.81;35.18
13124;BME280;6627;50.920;12.050;2023-02-16T12:02:13;99263.41;;;18.81;34.82
13124;BME280;6627;50.920;12.050;2023-02-16T12:05:04;99339.94;;;19.19;35.05
13124;BME280;6627;50.920;12.050;2023-02-16T12:07:46;99304.69;;;19.21;34.21
13124;BME280;6627;50.920;12.050;2023-02-16T12:10:25;99230.59;;;18.84;34.69
13124;BME280;6627;50.920;12.050;2023-02-16T12:13:05;99221.22;;;18.85;34.88
13124;BME280;6627;50.920;12.050;2023-02-16T12:15:45;99217.09;;;19.04;34.22
13124;BME280;6627;50.920;12.050;2023-02-16T12:18:23;99397.56;;;20.05;33.97
13124;BME280;6627;50.920;12.050;2023-02-16T12:21:01;99232.59;;;19.36;33.94
13124;BME280;6627;50.920;12.050;2023-02-16T12:23:38;99227.75;;;19.46;33.75
13124;BME280;6627;50.920;12.050;2023-02-16T12:26:30;99169.25;;;19.17;34.11
13124;BME280;6627;50.920;12.050;2023-02-16T12:29:21;99262.59;;;19.82;33.52
13124;BME280;6627;50.920;12.050;2023-02-16T12:32:01;99304.28;;;20.12;33.29
13124;BME280;6627;50.920;12.050;2023-02-16T12:35:02;99286.69;;;20.01;33.60
13124;BME280;6627;50.920;12.050;2023-02-16T12:37:43;99124.91;;;19.31;33.51
13124;BME280;6627;50.920;12.050;2023-02-16T12:40:29;99138.03;;;19.37;33.59
13124;BME280;6627;50.920;12.050;2023-02-16T12:43:20;99186.66;;;19.61;33.72
13124;BME280;6627;50.920;12.050;2023-02-16T12:45:54;99103.69;;;19.44;32.99
13124;BME280;6627;50.920;12.050;2023-02-16T12:48:33;99253.94;;;20.39;32.36
13124;BME280;6627;50.920;12.050;2023-02-16T12:51:09;99255.06;;;20.51;32.31
13124;BME280;6627;50.920;12.050;2023-02-16T12:53:45;99084.28;;;19.80;32.52
13124;BME280;6627;50.920;12.050;2023-02-16T12:56:20;99120.19;;;19.87;32.58
13124;BME280;6627;50.920;12.050;2023-02-16T12:59:17;99118.41;;;19.95;32.80
13124;BME280;6627;50.920;12.050;2023-02-16T13:01:50;99051.41;;;19.56;32.64
13124;BME280;6627;50.920;12.050;2023-02-16T13:04:23;99071.50;;;19.72;32.88
13124;BME280;6627;50.920;12.050;2023-02-16T13:07:00;99105.31;;;19.88;32.65
13124;BME280;6627;50.920;12.050;2023-02-16T13:09:39;99029.66;;;19.63;32.48
13124;BME280;6627;50.920;12.050;2023-02-16T13:12:20;99173.72;;;20.37;32.39
13124;BME280;6627;50.920;12.050;2023-02-16T13:14:59;99105.19;;;20.01;32.44
13124;BME280;6627;50.920;12.050;2023-02-16T13:17:32;99082.22;;;19.77;32.82
13124;BME280;6627;50.920;12.050;2023-02-16T13:20:01;99116.56;;;20.15;32.18
13124;BME280;6627;50.920;12.050;2023-02-16T13:22:50;99019.00;;;19.77;32.26
13124;BME280;6627;50.920;12.050;2023-02-16T13:25:54;99135.19;;;20.37;32.19
13124;BME280;6627;50.920;12.050;2023-02-16T13:28:43;99041.91;;;19.97;32.23
13124;BME280;6627;50.920;12.050;2023-02-16T13:31:28;99054.31;;;20.07;32.02
13124;BME280;6627;50.920;12.050;2023-02-16T13:34:11;99115.66;;;20.42;31.85
13124;BME280;6627;50.920;12.050;2023-02-16T13:37:11;99049.22;;;20.25;31.52
13124;BME280;6627;50.920;12.050;2023-02-16T13:40:12;99011.00;;;20.04;31.77
13124;BME280;6627;50.920;12.050;2023-02-16T13:43:04;99069.19;;;20.22;32.04
13124;BME280;6627;50.920;12.050;2023-02-16T13:45:41;98946.06;;;19.64;32.45
13124;BME280;6627;50.920;12.050;2023-02-16T13:48:19;99072.19;;;20.32;32.05
13124;BME280;6627;50.920;12.050;2023-02-16T13:50:56;98994.19;;;19.89;32.24